Time;durP1;ratioP1;P1;durP2;ratioP2;P2;SDS_P1;SDS_P2;PMS_P1;PMS_P2;Temp;Humidity;BMP_temperature;BMP_pressure;BME280_temperature;BME280_humidity;BME280_pressure;Samples;Min_cycle;Max_cycle;Signal;HPM_P1;HPM_P2
2022/04/26 03:36:41;;;;;;;41.30;13.65;;;7.50;99.90;;;;;;5032562;28;20064;-74
2022/04/26 03:39:07;;;;;;;32.30;12.07;;;7.50;99.90;;;;;;5014684;28;20434;-72
2022/04/26 03:41:34;;;;;;;35.20;11.25;;;7.50;99.90;;;;;;5034550;28;20103;-74
2022/04/26 03:44:00;;;;;;;37.92;12.23;;;7.50;99.90;;;;;;5039936;28;20087;-76
2022/04/26 03:46:26;;;;;;;33.60;12.35;;;7.50;99.90;;;;;;5038829;28;20057;-73
2022/04/26 03:48:52;;;;;;;35.63;12.02;;;7.40;99.90;;;;;;5038968;28;20072;-73
2022/04/26 03:51:18;;;;;;;31.17;13.23;;;7.40;99.90;;;;;;5037563;28;20041;-74
2022/04/26 03:53:47;;;;;;;31.52;10.75;;;7.40;99.90;;;;;;5038047;28;20053;-74
2022/04/26 03:56:13;;;;;;;36.85;12.93;;;7.40;99.90;;;;;;5022109;28;20057;-75
2022/04/26 03:58:38;;;;;;;33.20;12.50;;;7.40;99.90;;;;;;5037841;28;20445;-75
2022/04/26 04:01:04;;;;;;;40.38;13.93;;;7.40;99.90;;;;;;5021325;28;20112;-75
2022/04/26 04:03:31;;;;;;;30.25;11.10;;;7.30;99.90;;;;;;5021238;28;20171;-73
2022/04/26 04:05:56;;;;;;;36.28;14.10;;;7.30;99.90;;;;;;5038829;28;20045;-73
2022/04/26 04:08:22;;;;;;;37.80;12.18;;;7.30;99.90;;;;;;5005096;28;20107;-74
2022/04/26 04:10:48;;;;;;;40.72;13.55;;;7.30;99.90;;;;;;5037621;28;20049;-74
2022/04/26 04:13:16;;;;;;;36.70;15.93;;;7.30;99.90;;;;;;5020844;28;20075;-74
2022/04/26 04:15:42;;;;;;;40.63;16.42;;;7.30;99.90;;;;;;5039644;28;20045;-77
2022/04/26 04:19:17;;;;;;;42.40;15.07;;;7.30;99.90;;;;;;5021427;28;20051;-77
2022/04/26 04:20:53;;;;;;;32.25;12.38;;;7.30;99.90;;;;;;5037192;28;20084;-76
2022/04/26 04:23:19;;;;;;;39.67;12.40;;;7.20;99.90;;;;;;5021194;28;20085;-76
2022/04/26 04:25:45;;;;;;;38.65;15.75;;;7.20;99.90;;;;;;5037603;28;20072;-75
2022/04/26 04:28:10;;;;;;;33.17;12.82;;;7.20;99.90;;;;;;5021658;28;20620;-75
2022/04/26 04:30:36;;;;;;;49.30;14.50;;;7.20;99.90;;;;;;5039093;28;20080;-74
2022/04/26 04:33:02;;;;;;;35.95;14.82;;;7.20;99.90;;;;;;5037809;28;20041;-74
2022/04/26 04:35:28;;;;;;;30.45;12.55;;;7.20;99.90;;;;;;5038245;28;20046;-75
2022/04/26 04:37:53;;;;;;;36.42;11.77;;;7.30;99.90;;;;;;5039094;28;20359;-75
2022/04/26 04:40:19;;;;;;;29.75;11.93;;;7.20;99.90;;;;;;5038395;28;20134;-76
2022/04/26 04:42:45;;;;;;;30.75;12.25;;;7.30;99.90;;;;;;5058939;28;20057;-73
2022/04/26 04:45:11;;;;;;;34.85;11.75;;;7.30;99.90;;;;;;5040689;28;20099;-75
2022/04/26 04:47:37;;;;;;;31.67;13.18;;;7.40;99.90;;;;;;5040744;28;20045;-74
2022/04/26 04:50:03;;;;;;;33.58;12.52;;;7.30;99.90;;;;;;5059297;28;20079;-76
2022/04/26 04:52:29;;;;;;;36.83;12.25;;;7.30;99.90;;;;;;5039969;28;20060;-76
2022/04/26 04:54:54;;;;;;;34.72;11.98;;;7.40;99.90;;;;;;5021640;28;20072;-76
2022/04/26 04:57:20;;;;;;;38.33;11.00;;;7.40;99.90;;;;;;5037880;28;20041;-75
2022/04/26 04:59:46;;;;;;;30.10;10.55;;;7.40;99.90;;;;;;5037302;28;20052;-76
2022/04/26 05:02:11;;;;;;;35.95;12.48;;;7.50;99.90;;;;;;5037542;28;20075;-76
2022/04/26 05:04:39;;;;;;;31.20;11.75;;;7.50;99.90;;;;;;5020354;28;20082;-73
2022/04/26 05:07:07;;;;;;;30.65;10.85;;;7.50;99.90;;;;;;5020977;28;20485;-74
2022/04/26 05:09:33;;;;;;;32.83;10.77;;;7.60;99.90;;;;;;5055469;28;20158;-75
2022/04/26 05:11:59;;;;;;;31.35;11.52;;;7.60;99.90;;;;;;5037859;28;20432;-74
2022/04/26 05:14:24;;;;;;;27.42;10.23;;;7.50;99.90;;;;;;5055094;28;20032;-78
2022/04/26 05:16:50;;;;;;;30.70;10.77;;;7.60;99.90;;;;;;5020652;28;20052;-74
2022/04/26 05:19:16;;;;;;;32.25;12.07;;;7.60;99.90;;;;;;5036771;28;20049;-75
2022/04/26 05:21:42;;;;;;;34.75;13.20;;;7.60;99.90;;;;;;5036477;28;20041;-76
2022/04/26 05:26:55;;;;;;;31.85;10.75;;;7.60;99.90;;;;;;5055111;28;20107;-76
2022/04/26 05:29:20;;;;;;;31.83;9.77;;;7.70;99.90;;;;;;5036545;28;20052;-77
2022/04/26 05:31:46;;;;;;;27.98;10.10;;;7.70;99.90;;;;;;5020593;28;20429;-74
2022/04/26 05:34:12;;;;;;;25.23;10.20;;;7.80;99.90;;;;;;5054123;28;20488;-74
2022/04/26 05:36:38;;;;;;;32.85;11.98;;;7.80;99.90;;;;;;5054345;28;20040;-75
2022/04/26 05:39:04;;;;;;;27.83;10.80;;;7.70;99.90;;;;;;5036453;28;20041;-77
2022/04/26 05:41:29;;;;;;;27.73;10.25;;;7.70;99.90;;;;;;5019400;28;20057;-78
2022/04/26 05:43:55;;;;;;;30.80;10.30;;;7.80;99.90;;;;;;5036242;28;20045;-75
2022/04/26 05:46:21;;;;;;;27.80;11.27;;;7.70;99.90;;;;;;5019798;28;20056;-75
2022/04/26 05:48:46;;;;;;;27.83;9.15;;;7.70;99.90;;;;;;5036370;28;20045;-75
2022/04/26 05:51:12;;;;;;;32.45;10.68;;;7.80;99.90;;;;;;5020217;28;20052;-75
2022/04/26 05:53:38;;;;;;;28.30;10.93;;;7.80;99.90;;;;;;5053787;28;20106;-76
2022/04/26 05:56:05;;;;;;;35.80;10.80;;;7.80;99.90;;;;;;5036502;28;20059;-77
2022/04/26 05:58:32;;;;;;;28.83;11.73;;;7.80;99.90;;;;;;5037084;28;20124;-77
2022/04/26 06:00:57;;;;;;;31.40;10.20;;;7.80;99.90;;;;;;5036881;28;20057;-76
2022/04/26 06:03:23;;;;;;;33.13;10.70;;;7.80;99.90;;;;;;5036437;28;20130;-75
2022/04/26 06:05:49;;;;;;;23.20;8.27;;;7.90;99.90;;;;;;5021118;28;20140;-74
2022/04/26 06:08:15;;;;;;;38.00;9.55;;;8.00;99.90;;;;;;5055567;28;20041;-75
2022/04/26 06:10:40;;;;;;;19.73;7.85;;;8.10;99.90;;;;;;5054960;28;20045;-76
2022/04/26 06:13:08;;;;;;;25.67;10.77;;;8.10;99.90;;;;;;5036762;28;20052;-73
2022/04/26 06:15:34;;;;;;;;;;;8.10;99.90;;;;;;5054788;28;20044;-76
2022/04/26 06:17:59;;;;;;;29.52;8.00;;;8.20;99.90;;;;;;5036380;28;19921;-73
2022/04/26 06:20:27;;;;;;;22.75;7.72;;;8.30;99.90;;;;;;5019564;28;20055;-76
2022/04/26 06:22:53;;;;;;;24.15;8.55;;;8.30;99.90;;;;;;5053751;28;20190;-74
2022/04/26 06:25:19;;;;;;;21.17;7.53;;;8.40;99.90;;;;;;5003232;28;20076;-73
2022/04/26 06:27:47;;;;;;;20.52;7.70;;;8.50;99.90;;;;;;5035920;28;20041;-74
2022/04/26 06:30:14;;;;;;;19.92;7.85;;;8.50;99.90;;;;;;5053649;28;20103;-76
2022/04/26 06:32:42;;;;;;;22.50;8.45;;;8.60;99.90;;;;;;5035327;28;20044;-76
2022/04/26 06:35:09;;;;;;;26.90;8.82;;;8.50;99.90;;;;;;5019725;28;20048;-74
2022/04/26 06:37:35;;;;;;;18.83;5.72;;;8.50;99.90;;;;;;5036048;28;20056;-77
2022/04/26 06:40:01;;;;;;;24.15;6.88;;;8.70;99.90;;;;;;5053964;28;20049;-73
2022/04/26 06:42:27;;;;;;;22.48;7.40;;;8.70;99.90;;;;;;5035970;28;20376;-73
2022/04/26 06:44:52;;;;;;;25.13;8.75;;;8.80;99.90;;;;;;5003687;28;20441;-74
2022/04/26 06:47:18;;;;;;;26.52;6.82;;;8.80;99.90;;;;;;5036063;28;20144;-76
2022/04/26 06:49:44;;;;;;;20.70;6.80;;;9.00;99.90;;;;;;5035601;28;20051;-77
2022/04/26 06:52:10;;;;;;;21.52;6.22;;;9.30;99.90;;;;;;5036978;28;20105;-77
2022/04/26 06:54:36;;;;;;;20.98;7.65;;;9.40;99.90;;;;;;5037223;28;20045;-76
2022/04/26 06:57:02;;;;;;;21.23;8.25;;;9.30;99.90;;;;;;5054091;28;20107;-76
2022/04/26 06:59:28;;;;;;;22.45;8.40;;;9.30;99.90;;;;;;5055793;28;20431;-75
2022/04/26 07:01:54;;;;;;;24.13;7.53;;;9.20;99.90;;;;;;5004710;28;20044;-77
2022/04/26 07:04:20;;;;;;;22.33;8.30;;;9.30;99.90;;;;;;5036010;28;20128;-75
2022/04/26 07:06:47;;;;;;;16.88;5.78;;;9.30;99.90;;;;;;5002450;28;20507;-75
2022/04/26 07:09:13;;;;;;;14.82;5.38;;;9.50;99.90;;;;;;5035153;28;20041;-74
2022/04/26 07:11:42;;;;;;;17.77;5.35;;;9.50;99.90;;;;;;5053214;28;20068;-77
2022/04/26 07:14:11;;;;;;;14.90;5.82;;;9.50;99.90;;;;;;5019587;28;20084;-76
2022/04/26 07:16:38;;;;;;;17.42;5.55;;;9.60;99.90;;;;;;5033996;28;20134;-78
2022/04/26 07:19:04;;;;;;;22.30;5.47;;;9.40;99.90;;;;;;5035017;28;20045;-78
2022/04/26 07:21:31;;;;;;;16.50;5.80;;;9.70;99.90;;;;;;5020668;28;20069;-75
2022/04/26 07:23:57;;;;;;;13.80;4.50;;;9.80;99.90;;;;;;5053287;28;20268;-75
2022/04/26 07:26:22;;;;;;;20.42;5.75;;;9.90;99.90;;;;;;5037430;28;20310;-74
2022/04/26 07:28:48;;;;;;;17.00;5.82;;;10.10;99.90;;;;;;5036750;28;20363;-75
2022/04/26 07:31:14;;;;;;;15.75;5.95;;;10.40;99.90;;;;;;5019953;28;20079;-75
2022/04/26 07:36:24;;;;;;;17.10;5.25;;;10.20;99.90;;;;;;5035894;28;20088;-75
2022/04/26 07:38:50;;;;;;;17.52;6.30;;;10.00;99.90;;;;;;5036212;28;20167;-77
2022/04/26 07:41:16;;;;;;;15.45;5.30;;;9.80;99.90;;;;;;5019736;28;20053;-75
2022/04/26 07:43:42;;;;;;;15.50;6.18;;;10.00;99.90;;;;;;5038859;28;20404;-73
2022/04/26 07:46:09;;;;;;;17.92;6.80;;;9.80;99.90;;;;;;5036842;28;20323;-77
2022/04/26 07:48:38;;;;;;;14.95;4.97;;;9.50;99.90;;;;;;5003242;28;20041;-74
2022/04/26 07:51:04;;;;;;;10.80;4.55;;;9.70;99.90;;;;;;5019046;28;20041;-78
2022/04/26 07:53:30;;;;;;;14.27;5.32;;;9.60;99.90;;;;;;5020526;28;20049;-76
2022/04/26 07:55:56;;;;;;;12.57;4.88;;;9.70;99.90;;;;;;5037018;28;20052;-78
2022/04/26 07:58:25;;;;;;;15.55;5.20;;;9.90;99.90;;;;;;5020412;28;20041;-76
2022/04/26 08:00:50;;;;;;;16.02;6.25;;;9.80;99.90;;;;;;5035229;28;20123;-75
2022/04/26 08:03:20;;;;;;;17.20;5.78;;;9.70;99.90;;;;;;5018724;28;20068;-75
2022/04/26 08:05:53;;;;;;;15.73;5.35;;;9.60;99.90;;;;;;5019898;28;20084;-75
2022/04/26 08:08:19;;;;;;;9.85;5.22;;;9.80;99.90;;;;;;5034969;28;20052;-76
2022/04/26 08:10:45;;;;;;;13.43;4.37;;;10.00;99.90;;;;;;5035302;28;20045;-77
2022/04/26 08:13:11;;;;;;;13.07;5.20;;;10.00;99.90;;;;;;5055372;28;20317;-77
2022/04/26 08:15:39;;;;;;;15.05;5.22;;;10.20;99.90;;;;;;5037444;28;20222;-74
2022/04/26 08:18:09;;;;;;;15.25;4.80;;;10.20;99.90;;;;;;5052511;28;20126;-75
2022/04/26 08:20:37;;;;;;;16.30;4.70;;;10.40;99.90;;;;;;5018228;28;20048;-75
2022/04/26 08:23:10;;;;;;;7.80;3.40;;;10.30;99.90;;;;;;5018859;28;20049;-74
2022/04/26 08:28:28;;;;;;;14.40;4.75;;;10.50;99.90;;;;;;5037940;28;20071;-77
2022/04/26 08:30:56;;;;;;;12.48;4.90;;;10.60;99.90;;;;;;5038493;28;20412;-74
2022/04/26 08:33:22;;;;;;;12.63;4.30;;;;;;;;;;5038369;28;20053;-77
2022/04/26 08:35:48;;;;;;;12.25;3.67;;;11.50;99.90;;;;;;5021410;28;20044;-76
2022/04/26 08:38:14;;;;;;;14.30;4.82;;;11.20;99.90;;;;;;5037985;28;20064;-75
2022/04/26 08:40:44;;;;;;;12.93;4.30;;;11.10;99.90;;;;;;5021780;28;20057;-78
2022/04/26 08:43:10;;;;;;;12.35;4.53;;;11.10;99.90;;;;;;5039198;28;20044;-77
2022/04/26 08:45:40;;;;;;;12.55;4.32;;;11.00;99.90;;;;;;5038196;28;20052;-76
2022/04/26 08:51:00;;;;;;;15.68;4.85;;;11.00;99.90;;;;;;5038552;28;20053;-75
2022/04/26 08:53:33;;;;;;;12.60;4.40;;;10.60;99.90;;;;;;5022920;28;20048;-76
2022/04/26 08:56:03;;;;;;;12.82;3.30;;;10.90;99.90;;;;;;5021226;28;20044;-76
2022/04/26 08:58:32;;;;;;;10.55;3.40;;;11.10;99.90;;;;;;5037139;28;20497;-77
2022/04/26 09:01:18;;;;;;;12.90;3.60;;;11.60;99.90;;;;;;5021196;28;20128;-75
2022/04/26 09:03:56;;;;;;;16.75;3.70;;;11.60;99.90;;;;;;5055184;28;20467;-74
2022/04/26 09:06:36;;;;;;;10.55;3.90;;;11.70;99.90;;;;;;5037815;28;20059;-75
2022/04/26 09:09:09;;;;;;;10.13;3.92;;;11.70;99.90;;;;;;5037431;28;20520;-73
2022/04/26 09:11:36;;;;;;;11.15;4.32;;;11.70;99.90;;;;;;5021652;28;20075;-77
2022/04/26 09:14:05;;;;;;;12.85;3.17;;;11.50;99.90;;;;;;5004754;28;20045;-76
2022/04/26 09:16:32;;;;;;;11.10;3.45;;;11.40;99.90;;;;;;5022409;28;20041;-75
2022/04/26 09:18:59;;;;;;;8.67;3.50;;;11.70;99.90;;;;;;5021884;28;20048;-75
2022/04/26 09:21:33;;;;;;;9.77;3.15;;;11.80;99.90;;;;;;5041916;28;20200;-79
2022/04/26 09:24:05;;;;;;;9.45;3.80;;;12.10;99.90;;;;;;5039632;28;20049;-78
2022/04/26 09:26:36;;;;;;;7.93;3.40;;;11.90;99.90;;;;;;5038174;28;20512;-77
2022/04/26 09:29:06;;;;;;;11.85;3.63;;;11.70;99.90;;;;;;5038836;28;20045;-76
2022/04/26 09:31:37;;;;;;;15.88;4.03;;;12.00;99.90;;;;;;5023019;28;20057;-75
2022/04/26 09:34:14;;;;;;;14.18;3.75;;;12.30;99.90;;;;;;5037965;28;20140;-77
2022/04/26 09:36:48;;;;;;;15.27;3.33;;;12.60;99.90;;;;;;5038293;28;20056;-75
2022/04/26 09:39:19;;;;;;;12.48;3.88;;;12.50;99.90;;;;;;5039210;28;20357;-76
2022/04/26 09:42:07;;;;;;;12.63;4.15;;;12.30;99.90;;;;;;5032449;28;20054;-75
2022/04/26 09:44:38;;;;;;;10.52;3.80;;;12.50;99.90;;;;;;5014990;28;20140;-79
2022/04/26 09:47:04;;;;;;;12.70;4.60;;;12.70;99.90;;;;;;5016470;28;20050;-74
2022/04/26 09:49:37;;;;;;;12.18;3.30;;;12.80;99.90;;;;;;5014832;28;20041;-75
2022/04/26 09:52:06;;;;;;;10.75;4.03;;;12.80;99.90;;;;;;5015234;28;20042;-76
2022/04/26 09:54:32;;;;;;;12.35;4.30;;;12.60;99.90;;;;;;5029859;28;20048;-75
2022/04/26 09:57:01;;;;;;;12.48;3.85;;;12.60;99.90;;;;;;5014331;28;20045;-76
2022/04/26 09:59:37;;;;;;;12.65;3.90;;;12.50;99.90;;;;;;5013561;28;20556;-75
2022/04/26 10:02:07;;;;;;;10.90;3.83;;;12.60;99.90;;;;;;5013687;28;20141;-77
2022/04/26 10:04:37;;;;;;;11.27;3.67;;;12.80;99.90;;;;;;5013857;28;20045;-75
2022/04/26 10:07:07;;;;;;;8.80;3.30;;;13.20;99.90;;;;;;5013244;28;20084;-76
2022/04/26 10:09:33;;;;;;;9.43;3.30;;;13.30;99.90;;;;;;4997312;28;20046;-76
2022/04/26 10:12:01;;;;;;;7.80;3.03;;;13.50;99.60;;;;;;5012988;28;20081;-76
2022/04/26 10:14:32;;;;;;;8.90;3.85;;;13.50;98.40;;;;;;5014713;28;20145;-74
2022/04/26 10:16:59;;;;;;;10.35;4.47;;;13.70;99.20;;;;;;5014868;28;20053;-77
2022/04/26 10:19:43;;;;;;;10.85;3.72;;;13.90;96.70;;;;;;5014823;28;20148;-77
2022/04/26 10:22:15;;;;;;;11.93;4.05;;;13.50;98.50;;;;;;5014731;28;20042;-77
2022/04/26 10:25:12;;;;;;;11.15;3.45;;;13.10;98.60;;;;;;4997190;28;20092;-79
2022/04/26 10:27:40;;;;;;;11.38;4.50;;;12.90;98.50;;;;;;4990681;28;20066;-76
2022/04/26 10:30:06;;;;;;;11.25;3.72;;;12.40;98.10;;;;;;4996108;28;20108;-77
2022/04/26 10:32:38;;;;;;;10.57;4.20;;;12.70;98.90;;;;;;5012843;28;20060;-77
2022/04/26 10:35:26;;;;;;;13.48;3.97;;;13.10;99.60;;;;;;5029936;28;20363;-75
2022/04/26 10:38:07;;;;;;;12.32;4.10;;;13.40;99.00;;;;;;5012311;28;20050;-77
2022/04/26 10:41:02;;;;;;;9.57;3.90;;;13.40;95.70;;;;;;5015288;28;20049;-75
2022/04/26 10:43:28;;;;;;;10.80;4.20;;;13.60;95.50;;;;;;5016846;28;20168;-79
2022/04/26 10:46:10;;;;;;;14.57;4.78;;;13.50;94.00;;;;;;5034974;28;20367;-78
2022/04/26 10:48:37;;;;;;;10.77;4.68;;;13.30;95.10;;;;;;5033450;28;20062;-75
2022/04/26 10:51:35;;;;;;;10.05;3.72;;;13.30;94.40;;;;;;5033108;28;20049;-76
2022/04/26 10:54:03;;;;;;;11.30;3.60;;;13.30;94.70;;;;;;5016030;28;20194;-76
2022/04/26 10:56:32;;;;;;;10.07;4.15;;;13.40;95.30;;;;;;5032803;28;20084;-75
2022/04/26 10:58:59;;;;;;;11.65;4.00;;;13.10;94.70;;;;;;5000635;28;20057;-75
2022/04/26 11:01:28;;;;;;;10.00;3.53;;;12.60;94.20;;;;;;5033958;28;20108;-76
2022/04/26 11:03:56;;;;;;;10.30;3.45;;;13.00;95.00;;;;;;5000925;28;20088;-75
2022/04/26 11:06:41;;;;;;;10.02;3.47;;;13.20;94.30;;;;;;5033750;28;20085;-76
2022/04/26 11:09:14;;;;;;;9.40;3.35;;;13.40;95.00;;;;;;5017011;28;20092;-78
2022/04/26 11:11:50;;;;;;;8.98;3.20;;;13.50;94.10;;;;;;5034648;28;20055;-76
2022/04/26 11:14:20;;;;;;;10.75;3.38;;;13.80;92.60;;;;;;5035286;28;20041;-79
2022/04/26 11:17:04;;;;;;;11.20;3.38;;;13.70;93.60;;;;;;5008009;28;20539;-78
2022/04/26 11:19:38;;;;;;;8.13;3.20;;;13.90;93.10;;;;;;5043636;28;20046;-74
2022/04/26 11:22:13;;;;;;;8.70;3.70;;;13.70;93.60;;;;;;5024402;28;20045;-76
2022/04/26 11:30:41;;;;;;;9.98;4.18;;;13.60;91.90;;;;;;5025449;28;20076;-78
2022/04/26 11:33:28;;;;;;;8.23;3.03;;;13.20;92.10;;;;;;5035491;28;20109;-76
2022/04/26 11:36:01;;;;;;;5.93;3.13;;;13.30;92.90;;;;;;5005268;28;20047;-77
2022/04/26 11:38:27;;;;;;;7.35;3.17;;;13.10;91.70;;;;;;5038498;28;20458;-78
2022/04/26 11:41:16;;;;;;;7.45;2.92;;;13.20;92.30;;;;;;5039617;28;20053;-79
2022/04/26 11:43:42;;;;;;;9.80;3.20;;;13.30;92.00;;;;;;5059906;28;20047;-76
2022/04/26 11:46:14;;;;;;;5.43;2.28;;;13.10;88.50;;;;;;5031928;28;20056;-76
2022/04/26 11:48:47;;;;;;;8.55;3.13;;;13.30;90.10;;;;;;5028179;28;20053;-76
2022/04/26 11:51:13;;;;;;;8.07;2.70;;;13.20;87.70;;;;;;5042944;28;20041;-76
2022/04/26 11:53:41;;;;;;;7.72;2.97;;;13.40;89.40;;;;;;5043653;28;20477;-79
2022/04/26 11:56:07;;;;;;;7.80;3.00;;;13.60;88.60;;;;;;5023263;28;20377;-81
2022/04/26 11:58:35;;;;;;;11.65;3.20;;;13.80;90.40;;;;;;5036985;28;20044;-77
2022/04/26 12:01:11;;;;;;;6.70;2.47;;;13.40;86.00;;;;;;5036931;28;20357;-74
2022/04/26 12:03:44;;;;;;;6.47;3.00;;;13.50;88.30;;;;;;5057303;28;20037;-76
2022/04/26 12:06:11;;;;;;;8.07;2.75;;;13.30;88.20;;;;;;5024447;28;20107;-79
2022/04/26 12:08:41;;;;;;;8.00;2.50;;;13.30;87.20;;;;;;5042487;28;20059;-76
2022/04/26 12:11:36;;;;;;;6.93;2.78;;;13.00;83.70;;;;;;5028414;28;20045;-79
2022/04/26 12:14:05;;;;;;;10.07;2.40;;;13.10;86.10;;;;;;5041852;28;20060;-76
2022/04/26 12:16:35;;;;;;;9.00;2.58;;;13.40;87.70;;;;;;5043017;28;20134;-76
2022/04/26 12:19:02;;;;;;;8.27;3.22;;;13.50;86.70;;;;;;5044104;28;20113;-75
2022/04/26 12:21:42;;;;;;;6.95;2.78;;;13.40;83.50;;;;;;5026798;28;20096;-77
2022/04/26 12:24:22;;;;;;;7.95;2.80;;;13.50;82.50;;;;;;5044507;28;20052;-80
2022/04/26 12:27:12;;;;;;;9.70;2.70;;;13.60;81.40;;;;;;5041461;28;20048;-76
2022/04/26 12:29:38;;;;;;;7.50;2.58;;;14.00;84.40;;;;;;5016510;28;20404;-74
2022/04/26 12:32:06;;;;;;;7.50;2.65;;;14.10;79.20;;;;;;5040265;28;20056;-78
2022/04/26 12:34:32;;;;;;;7.25;2.17;;;14.30;79.90;;;;;;5023277;28;20072;-76
2022/04/26 12:37:03;;;;;;;6.30;2.45;;;14.50;81.20;;;;;;5022804;28;20102;-76
2022/04/26 12:39:38;;;;;;;8.10;2.60;;;14.70;80.20;;;;;;5057671;28;20138;-76
2022/04/26 12:42:07;;;;;;;7.85;2.70;;;14.20;79.50;;;;;;5059483;28;20140;-78
2022/04/26 12:44:34;;;;;;;9.00;2.35;;;14.10;81.10;;;;;;5040878;28;20067;-78
2022/04/26 12:52:53;;;;;;;9.95;2.38;;;13.60;81.00;;;;;;5041428;28;20061;-79
2022/04/26 12:55:57;;;;;;;9.75;2.58;;;13.50;80.90;;;;;;5059052;28;20511;-77
2022/04/26 12:58:37;;;;;;;5.72;2.10;;;13.60;80.50;;;;;;5039905;28;20057;-78
2022/04/26 13:01:05;;;;;;;6.85;1.83;;;13.80;78.00;;;;;;5039270;28;20441;-75
2022/04/26 13:03:31;;;;;;;11.48;2.88;;;13.90;75.60;;;;;;5022061;28;20037;-79
2022/04/26 13:06:17;;;;;;;8.10;2.67;;;14.10;75.70;;;;;;5022177;28;20056;-75
2022/04/26 13:08:45;;;;;;;8.65;2.20;;;14.10;79.10;;;;;;5039200;28;20552;-75
2022/04/26 13:11:12;;;;;;;6.22;1.98;;;14.00;77.30;;;;;;5005829;28;20504;-74
2022/04/26 13:13:39;;;;;;;6.15;2.28;;;14.40;77.90;;;;;;5055720;28;20041;-79
2022/04/26 13:16:06;;;;;;;10.93;2.55;;;14.50;75.40;;;;;;5038248;28;20489;-79
2022/04/26 13:18:35;;;;;;;6.97;2.08;;;14.70;75.00;;;;;;5038859;28;20049;-79
2022/04/26 13:21:05;;;;;;;7.63;1.98;;;14.60;73.60;;;;;;5056976;28;20084;-79
2022/04/26 13:23:33;;;;;;;;;;;14.50;73.60;;;;;;5038919;28;20056;-75
2022/04/26 13:26:00;;;;;;;6.35;2.08;;;14.20;75.30;;;;;;5038428;28;20261;-78
2022/04/26 13:28:27;;;;;;;6.93;2.35;;;14.60;75.00;;;;;;5021890;28;20179;-77
2022/04/26 13:30:53;;;;;;;7.47;2.55;;;13.90;75.90;;;;;;5037953;28;20144;-77
2022/04/26 13:33:18;;;;;;;6.93;2.33;;;13.50;76.30;;;;;;5055708;28;20132;-78
2022/04/26 13:35:44;;;;;;;6.18;2.47;;;13.50;75.80;;;;;;5021551;28;20331;-79
2022/04/26 13:38:11;;;;;;;6.55;2.33;;;13.60;74.90;;;;;;5038295;28;20049;-77
2022/04/26 13:40:38;;;;;;;;;;;13.60;76.00;;;;;;5021246;28;20480;-76
2022/04/26 13:43:05;;;;;;;5.70;2.53;;;13.90;77.40;;;;;;5037772;28;19927;-75
2022/04/26 13:45:34;;;;;;;10.93;2.13;;;13.70;74.60;;;;;;5037683;28;20384;-79
2022/04/26 13:48:01;;;;;;;6.03;2.67;;;13.70;76.50;;;;;;5037472;28;20045;-79
2022/04/26 13:50:28;;;;;;;;;;;13.80;74.60;;;;;;5038200;28;20041;-77
2022/04/26 13:52:54;;;;;;;;;;;13.90;75.50;;;;;;5037650;28;20310;-78
2022/04/26 13:55:20;;;;;;;6.20;1.83;;;14.20;77.50;;;;;;5037836;28;20073;-75
2022/04/26 13:57:46;;;;;;;6.65;2.80;;;14.10;73.10;;;;;;5055017;28;20187;-78
2022/04/26 14:00:15;;;;;;;6.67;2.17;;;14.40;73.50;;;;;;5054432;28;20049;-75
2022/04/26 14:02:44;;;;;;;6.70;2.05;;;14.40;73.50;;;;;;5036408;28;20284;-77
2022/04/26 14:05:12;;;;;;;6.57;2.15;;;14.60;73.90;;;;;;5037268;28;20468;-77
2022/04/26 14:07:37;;;;;;;8.20;2.22;;;14.60;74.30;;;;;;5037721;28;20052;-79
2022/04/26 14:10:04;;;;;;;9.70;2.17;;;14.30;73.70;;;;;;5055175;28;20102;-75
2022/04/26 14:12:30;;;;;;;4.73;1.67;;;14.30;71.30;;;;;;5036348;28;20061;-76
2022/04/26 14:23:09;;;;;;;7.75;2.35;;;13.90;71.90;;;;;;5037094;28;20048;-78
2022/04/26 14:25:35;;;;;;;7.65;2.38;;;13.70;71.00;;;;;;5053059;28;20401;-76
2022/04/26 14:28:00;;;;;;;6.20;2.40;;;14.00;73.20;;;;;;5035981;28;20041;-73
2022/04/26 14:30:27;;;;;;;7.80;2.75;;;13.70;72.90;;;;;;5052675;28;20059;-78
2022/04/26 14:32:54;;;;;;;10.23;2.72;;;13.80;74.70;;;;;;5020133;28;20080;-74
2022/04/26 14:35:20;;;;;;;6.22;2.40;;;13.90;74.90;;;;;;5019257;28;20055;-77
2022/04/26 14:37:46;;;;;;;8.05;2.85;;;13.90;73.20;;;;;;5035757;28;20045;-74
2022/04/26 14:40:12;;;;;;;6.68;2.53;;;14.00;74.90;;;;;;5002932;28;20473;-75
2022/04/26 14:42:38;;;;;;;10.48;2.30;;;14.10;73.40;;;;;;5035222;28;20572;-76
2022/04/26 14:45:05;;;;;;;9.18;2.90;;;14.20;73.60;;;;;;5035351;28;20473;-78
2022/04/26 14:47:31;;;;;;;7.88;2.72;;;14.20;72.70;;;;;;5036189;28;20132;-79
2022/04/26 14:49:57;;;;;;;8.63;2.42;;;14.20;75.20;;;;;;5052755;28;20045;-78
2022/04/26 14:52:24;;;;;;;5.30;2.40;;;14.10;72.30;;;;;;5019076;28;20045;-75
2022/04/26 14:54:50;;;;;;;7.95;2.58;;;14.00;71.50;;;;;;5053224;28;20052;-77
2022/04/26 14:57:19;;;;;;;12.67;2.70;;;14.20;73.30;;;;;;5018892;28;20049;-75
2022/04/26 14:59:48;;;;;;;6.65;2.70;;;14.20;71.50;;;;;;5035799;28;20394;-76
2022/04/26 15:02:17;;;;;;;9.05;2.60;;;14.30;72.60;;;;;;5018797;28;20086;-78
2022/04/26 15:04:44;;;;;;;7.45;2.13;;;14.20;70.70;;;;;;5018921;28;20464;-77
2022/04/26 15:07:10;;;;;;;;;;;13.90;71.20;;;;;;5035887;28;20057;-78
2022/04/26 15:09:46;;;;;;;9.23;2.70;;;14.00;72.50;;;;;;5052819;28;19924;-75
2022/04/26 15:17:48;;;;;;;12.00;3.05;;;13.80;72.50;;;;;;5052669;28;20049;-76
2022/04/26 15:20:16;;;;;;;5.32;2.50;;;13.90;73.70;;;;;;5018937;28;20048;-75
2022/04/26 15:22:42;;;;;;;8.55;2.35;;;14.10;75.10;;;;;;5053343;28;20117;-74
2022/04/26 15:25:09;;;;;;;8.15;2.42;;;14.10;74.10;;;;;;5034961;28;20052;-78
2022/04/26 15:27:39;;;;;;;6.95;2.50;;;14.20;74.00;;;;;;5035062;28;20068;-79
2022/04/26 15:30:08;;;;;;;7.97;2.53;;;14.10;73.50;;;;;;5035009;28;20078;-78
2022/04/26 15:32:34;;;;;;;6.00;2.50;;;14.00;72.00;;;;;;5034930;28;20037;-75
2022/04/26 15:35:00;;;;;;;6.45;2.63;;;14.10;73.20;;;;;;5001720;28;20493;-76
2022/04/26 15:37:27;;;;;;;5.80;2.40;;;13.90;71.30;;;;;;5034065;28;20080;-81
2022/04/26 15:39:55;;;;;;;7.85;2.70;;;13.80;72.00;;;;;;5052236;28;20087;-76
2022/04/26 15:42:21;;;;;;;;;;;13.60;73.30;;;;;;5053083;28;20167;-73
2022/04/26 15:44:48;;;;;;;10.02;3.22;;;13.50;73.10;;;;;;5018940;28;19921;-75
2022/04/26 15:47:14;;;;;;;8.50;3.15;;;13.50;73.50;;;;;;5051473;28;20049;-75
2022/04/26 15:49:40;;;;;;;9.50;3.00;;;13.50;72.90;;;;;;5034812;28;20055;-77
2022/04/26 15:52:07;;;;;;;10.70;3.38;;;13.40;72.90;;;;;;5052805;28;20100;-76
2022/04/26 15:54:35;;;;;;;7.43;2.75;;;13.60;73.30;;;;;;5018096;28;20413;-77
2022/04/26 15:57:01;;;;;;;7.05;2.92;;;13.70;73.20;;;;;;5035012;28;20374;-75
2022/04/26 15:59:27;;;;;;;7.83;3.17;;;13.90;72.70;;;;;;5035192;28;20208;-75
2022/04/26 16:01:53;;;;;;;6.68;3.30;;;13.70;72.50;;;;;;5035211;28;20116;-77
2022/04/26 16:04:19;;;;;;;7.13;2.70;;;13.60;73.40;;;;;;5034809;28;20075;-77
2022/04/26 16:06:45;;;;;;;8.23;2.50;;;13.50;75.50;;;;;;5018350;28;20048;-76
2022/04/26 16:20:30;;;;;;;7.68;3.28;;;13.40;78.70;;;;;;5025878;28;20144;-76
2022/04/26 16:22:57;;;;;;;;;;;13.40;78.00;;;;;;5053108;28;20103;-77
2022/04/26 16:25:23;;;;;;;10.55;2.90;;;13.00;79.00;;;;;;5034852;28;19936;-78
2022/04/26 16:27:49;;;;;;;8.60;3.00;;;13.20;79.00;;;;;;5035079;28;20045;-78
2022/04/26 16:30:16;;;;;;;6.78;3.40;;;13.00;79.20;;;;;;5034892;28;20139;-79
2022/04/26 16:32:43;;;;;;;9.65;3.35;;;13.10;80.50;;;;;;5035311;28;20132;-74
2022/04/26 16:35:10;;;;;;;6.82;3.53;;;13.00;81.20;;;;;;5052607;28;20052;-77
2022/04/26 16:37:37;;;;;;;13.18;3.15;;;12.90;81.50;;;;;;5019294;28;20045;-79
2022/04/26 16:40:04;;;;;;;11.25;3.00;;;12.90;81.00;;;;;;5037677;28;20053;-74
2022/04/26 16:42:31;;;;;;;;;;;12.70;80.90;;;;;;5038176;28;20053;-76
2022/04/26 16:44:58;;;;;;;11.85;2.95;;;12.60;82.40;;;;;;5020751;28;19975;-74
2022/04/26 16:47:24;;;;;;;8.85;3.20;;;12.70;82.90;;;;;;5036326;28;20481;-77
2022/04/26 16:49:49;;;;;;;8.60;3.38;;;12.70;83.10;;;;;;5021764;28;20048;-76
2022/04/26 16:52:15;;;;;;;6.82;2.75;;;12.40;82.30;;;;;;5058038;28;20045;-78
2022/04/26 16:54:41;;;;;;;10.98;3.83;;;12.40;82.30;;;;;;5040311;28;20442;-79
2022/04/26 16:57:07;;;;;;;9.60;3.40;;;12.50;82.30;;;;;;5024722;28;20084;-76
2022/04/26 16:59:33;;;;;;;6.03;2.85;;;12.20;82.60;;;;;;5058353;28;20385;-77
2022/04/26 17:01:59;;;;;;;7.60;3.47;;;12.20;82.90;;;;;;5057760;28;20044;-78
2022/04/26 17:04:26;;;;;;;9.10;3.30;;;11.90;84.10;;;;;;5057051;28;20045;-74
2022/04/26 17:06:52;;;;;;;9.18;3.38;;;11.90;85.40;;;;;;5038453;28;20049;-78
2022/04/26 17:09:20;;;;;;;6.68;2.85;;;11.90;85.20;;;;;;5022616;28;20056;-76
2022/04/26 17:11:47;;;;;;;9.32;3.53;;;11.90;86.00;;;;;;5008626;28;20434;-75
2022/04/26 17:14:18;;;;;;;8.50;3.00;;;12.00;85.50;;;;;;5040127;28;20171;-79
2022/04/26 17:16:46;;;;;;;11.85;3.47;;;11.90;85.10;;;;;;5058321;28;20051;-76